Golden Triangle Regional Airport
KGTR : now visible

Airfield :











YOU CAN JOIN US ON...

 
LOGIN :

Register | Disclaimer

   EN    FR    IT 

 









Legend :    VFR   Marginal VFR   IFR   Intensive IFR   Very Intensive IFR
Visi :
Ceiling :
>= 8 km
>= 3000ft
5 to 8 km
1000 to 3000 ft
1500m to 5 km
500 to 1000 ft
800 to 1500m
200 to 500 ft
< 800m
< 200 ft
Symbols :   Thunderstorms  Fog  Heavy snow  Heavy precipitations  Wind > 20 kt






- Airport Elevation : 264 ft


KGTR - Golden Triangle Regional

CURRENT METAR :
  • 080956Z AUTO 17005KT 3/4SM BR OVC003 19/19 A2987 RMK AO2 SLP121 T01940194 RVRNO

EXPIRED METARs :
  • 080935Z AUTO 16005KT 3/4SM BR OVC003 19/19 A2987 RMK AO2 RVRNO
  • 080913Z AUTO 14004KT 1SM BR OVC003 19/19 A2987 RMK AO2 RVRNO
  • 080856Z AUTO 14004KT 3/4SM BR OVC003 19/19 A2987 RMK AO2 SLP120 T01940194 56016 RVRNO
  • 080756Z AUTO 16004KT 3/4SM BR OVC003 19/19 A2988 RMK AO2 SLP125 T01890189 RVRNO

TAF KGTR
Valid from the 08 at 06:00 until the 09 at 06:00 UTC


080540Z 0806/0906 17007KT P6SM OVC003
FM080900 18007KT 6SM BR OVC003
FM081600 27008KT P6SM BKN015
FM081800 27009KT P6SM SCT045



MET'MAP, your aeronautical weather chart ! - Copyright ORBIFLY December 2007 - Disclaimer

ORBIFLY MET'MAP TEAM :

Programming & Development : Alexandra Zaïnal
Concept & original design : Baudouin d'Aumeries
Assistance for programming : Marc-Olivier Méhu
Technical & hardware support : Manuel Goepfert

Contact : metmap@orbifly.com




SOURCES & CREDITS :

   NOAA       Earth
Advisory